ACA7137 EDHI-CYQG
Flight info
| Callsign | ACA7137 |
|---|---|
| Flight time | N/A |
| Altitude | 34000 |
| Route | ELSOB DCT ATTUS DCT GUNPA/M077F360 DCT H6316 DCT 6430N/M077F370 DCT 64N040W 63N050W DCT PIDSO N944A SINGA/N0435F380 N934B LAKES DCT TEALS DCT MT DCT SMARE DCT KENLU Q802 DERLO DCT PICUP AUTTO1 |
| Aircraft | A21N/M-SDE2E3FGHIRWXY/LB1 |
Departure
| Time | 2026-04-26 17:21 |
|---|---|
| Airport | Hamburg-Finkenwerder Airport (EDHI) |
Arrival
| Time | N/A |
|---|---|
| Airport | Windsor International Airport (CYQG) |
| Time | Latitude | Longitude | Altitude | Speed | Heading |
|---|---|---|---|---|---|
| 2026-04-26 16:35 | 53.53118 | 9.83538 | 27 ft | 0 kts | 207° |
| 2026-04-26 17:10 | 53.53135 | 9.83551 | 27 ft | 4 kts | 201° |
| 2026-04-26 17:10 | 53.53148 | 9.83560 | 27 ft | 1 kts | 204° |
| 2026-04-26 17:10 | 53.53150 | 9.83561 | 27 ft | 0 kts | 204° |
| 2026-04-26 17:13 | 53.53148 | 9.83560 | 27 ft | 0 kts | 205° |
| 2026-04-26 17:14 | 53.53146 | 9.83542 | 27 ft | 2 kts | 292° |
| 2026-04-26 17:14 | 53.53159 | 9.83516 | 27 ft | 0 kts | 300° |
| 2026-04-26 17:15 | 53.53177 | 9.83460 | 27 ft | 9 kts | 296° |
| 2026-04-26 17:15 | 53.53218 | 9.83362 | 27 ft | 11 kts | 342° |
| 2026-04-26 17:15 | 53.53277 | 9.83408 | 27 ft | 9 kts | 26° |
| 2026-04-26 17:16 | 53.53346 | 9.83405 | 27 ft | 12 kts | 346° |
| 2026-04-26 17:16 | 53.53434 | 9.83386 | 27 ft | 14 kts | 19° |
| 2026-04-26 17:16 | 53.53504 | 9.83494 | 26 ft | 16 kts | 53° |
| 2026-04-26 17:16 | 53.53584 | 9.83667 | 28 ft | 21 kts | 51° |
| 2026-04-26 17:17 | 53.53678 | 9.83864 | 26 ft | 22 kts | 52° |
| 2026-04-26 17:17 | 53.53778 | 9.84080 | 28 ft | 24 kts | 51° |
| 2026-04-26 17:17 | 53.53888 | 9.84310 | 30 ft | 26 kts | 52° |
| 2026-04-26 17:17 | 53.54004 | 9.84554 | 29 ft | 27 kts | 52° |
| 2026-04-26 17:18 | 53.54124 | 9.84808 | 29 ft | 29 kts | 51° |
| 2026-04-26 17:18 | 53.54225 | 9.84969 | 30 ft | 14 kts | 7° |
| 2026-04-26 17:18 | 53.54267 | 9.85069 | 32 ft | 14 kts | 156° |
| 2026-04-26 17:18 | 53.54227 | 9.85031 | 31 ft | 0 kts | 233° |
| 2026-04-26 17:20 | 53.54227 | 9.85030 | 31 ft | 1 kts | 233° |
| 2026-04-26 17:20 | 53.54189 | 9.84950 | 29 ft | 35 kts | 232° |
| 2026-04-26 17:20 | 53.53662 | 9.83825 | 27 ft | 144 kts | 232° |
| 2026-04-26 17:20 | 53.52961 | 9.82372 | 397 ft | 168 kts | 234° |
| 2026-04-26 17:21 | 53.52217 | 9.80820 | 1163 ft | 174 kts | 234° |
| 2026-04-26 17:21 | 53.51459 | 9.79235 | 1944 ft | 179 kts | 234° |
| 2026-04-26 17:21 | 53.50662 | 9.77528 | 2608 ft | 192 kts | 234° |
| 2026-04-26 17:21 | 53.49802 | 9.75685 | 3298 ft | 208 kts | 232° |
| 2026-04-26 17:22 | 53.48867 | 9.73675 | 3891 ft | 232 kts | 236° |
| 2026-04-26 17:22 | 53.48327 | 9.71028 | 4463 ft | 252 kts | 269° |
| 2026-04-26 17:22 | 53.48780 | 9.68186 | 5420 ft | 257 kts | 295° |
| 2026-04-26 17:22 | 53.49768 | 9.65705 | 6564 ft | 258 kts | 313° |
| 2026-04-26 17:23 | 53.51256 | 9.64016 | 7523 ft | 262 kts | 335° |
| 2026-04-26 17:23 | 53.52979 | 9.62952 | 8505 ft | 265 kts | 340° |
| 2026-04-26 17:23 | 53.54734 | 9.61957 | 9476 ft | 268 kts | 340° |
| 2026-04-26 17:23 | 53.56504 | 9.60937 | 10420 ft | 271 kts | 340° |
| 2026-04-26 17:24 | 53.58346 | 9.59857 | 10894 ft | 291 kts | 339° |
| 2026-04-26 17:24 | 53.60301 | 9.58702 | 11257 ft | 312 kts | 339° |
| 2026-04-26 17:24 | 53.62385 | 9.57465 | 11892 ft | 322 kts | 339° |
| 2026-04-26 17:24 | 53.64490 | 9.56211 | 12716 ft | 326 kts | 339° |
| 2026-04-26 17:25 | 53.66640 | 9.54920 | 13585 ft | 330 kts | 339° |
| 2026-04-26 17:25 | 53.68811 | 9.53604 | 14415 ft | 333 kts | 338° |
| 2026-04-26 17:25 | 53.71002 | 9.52275 | 15171 ft | 337 kts | 338° |
| 2026-04-26 17:25 | 53.73226 | 9.50929 | 15950 ft | 341 kts | 338° |
| 2026-04-26 17:26 | 53.75474 | 9.49568 | 16711 ft | 345 kts | 338° |
| 2026-04-26 17:26 | 53.77715 | 9.48209 | 17454 ft | 349 kts | 338° |
| 2026-04-26 17:26 | 53.80044 | 9.46792 | 18212 ft | 353 kts | 338° |
| 2026-04-26 17:27 | 53.80178 | 9.46711 | 18226 ft | 354 kts | 338° |
| 2026-04-26 17:27 | 53.82476 | 9.45314 | 18923 ft | 358 kts | 338° |
| 2026-04-26 17:27 | 53.84831 | 9.43886 | 19583 ft | 361 kts | 338° |
| 2026-04-26 17:27 | 53.87175 | 9.42457 | 20216 ft | 364 kts | 338° |
| 2026-04-26 17:28 | 53.89567 | 9.40993 | 20873 ft | 367 kts | 338° |
| 2026-04-26 17:28 | 53.91978 | 9.39518 | 21517 ft | 370 kts | 338° |
| 2026-04-26 17:28 | 53.94409 | 9.38037 | 22151 ft | 373 kts | 338° |
| 2026-04-26 17:28 | 53.96861 | 9.36541 | 22767 ft | 376 kts | 337° |
| 2026-04-26 17:29 | 53.99336 | 9.35026 | 23383 ft | 380 kts | 337° |
| 2026-04-26 17:29 | 54.00985 | 9.34015 | 23780 ft | 382 kts | 337° |
| 2026-04-26 17:29 | 54.04344 | 9.31949 | 24463 ft | 386 kts | 337° |
| 2026-04-26 17:29 | 54.06843 | 9.30414 | 24954 ft | 388 kts | 337° |
| 2026-04-26 17:30 | 54.09391 | 9.28843 | 25440 ft | 391 kts | 337° |
| 2026-04-26 17:30 | 54.11956 | 9.27265 | 25928 ft | 394 kts | 337° |
| 2026-04-26 17:30 | 54.14543 | 9.25675 | 26421 ft | 396 kts | 337° |
| 2026-04-26 17:30 | 54.17138 | 9.24073 | 26901 ft | 398 kts | 337° |
| 2026-04-26 17:31 | 54.19745 | 9.22461 | 27271 ft | 400 kts | 337° |
| 2026-04-26 17:31 | 54.22362 | 9.20843 | 27363 ft | 400 kts | 337° |
| 2026-04-26 17:31 | 54.24987 | 9.19218 | 27363 ft | 400 kts | 337° |
| 2026-04-26 17:31 | 54.27602 | 9.17591 | 27352 ft | 400 kts | 337° |
| 2026-04-26 17:32 | 54.30214 | 9.15957 | 27345 ft | 400 kts | 336° |
| 2026-04-26 17:32 | 54.32831 | 9.14324 | 27342 ft | 400 kts | 337° |
| 2026-04-26 17:32 | 54.35445 | 9.12696 | 27341 ft | 400 kts | 337° |
| 2026-04-26 17:32 | 54.38062 | 9.11063 | 27340 ft | 400 kts | 337° |
| 2026-04-26 17:33 | 54.40681 | 9.09427 | 27336 ft | 402 kts | 337° |
| 2026-04-26 17:33 | 54.43274 | 9.07816 | 27350 ft | 401 kts | 337° |
| 2026-04-26 17:33 | 54.45903 | 9.06189 | 27346 ft | 401 kts | 337° |
| 2026-04-26 17:34 | 54.51148 | 9.02904 | 27341 ft | 401 kts | 337° |
| 2026-04-26 17:34 | 54.53768 | 9.01259 | 27342 ft | 401 kts | 336° |
| 2026-04-26 17:34 | 54.56385 | 8.99610 | 27342 ft | 401 kts | 336° |
| 2026-04-26 17:34 | 54.59004 | 8.97960 | 27342 ft | 401 kts | 336° |
| 2026-04-26 17:35 | 54.61624 | 8.96300 | 27343 ft | 401 kts | 336° |
| 2026-04-26 17:35 | 54.64242 | 8.94639 | 27338 ft | 401 kts | 336° |
| 2026-04-26 17:35 | 54.66861 | 8.92978 | 27337 ft | 401 kts | 336° |
| 2026-04-26 17:35 | 54.69479 | 8.91322 | 27355 ft | 400 kts | 336° |
| 2026-04-26 17:36 | 54.72086 | 8.89670 | 27346 ft | 399 kts | 336° |
| 2026-04-26 17:36 | 54.74658 | 8.88033 | 27338 ft | 399 kts | 336° |
| 2026-04-26 17:36 | 54.77261 | 8.86371 | 27335 ft | 399 kts | 336° |
| 2026-04-26 17:36 | 54.79864 | 8.84706 | 27334 ft | 399 kts | 336° |
| 2026-04-26 17:37 | 54.82467 | 8.83034 | 27337 ft | 399 kts | 336° |
| 2026-04-26 17:37 | 54.85065 | 8.81363 | 27329 ft | 399 kts | 336° |
| 2026-04-26 17:37 | 54.87667 | 8.79694 | 27330 ft | 399 kts | 336° |
| 2026-04-26 17:38 | 54.92567 | 8.75261 | 27918 ft | 399 kts | 324° |
| 2026-04-26 17:38 | 54.94878 | 8.72567 | 28352 ft | 402 kts | 323° |
| 2026-04-26 17:38 | 54.97197 | 8.69832 | 28793 ft | 404 kts | 323° |
| 2026-04-26 17:38 | 54.99538 | 8.67081 | 29234 ft | 407 kts | 323° |
| 2026-04-26 17:39 | 55.01861 | 8.64357 | 29649 ft | 409 kts | 323° |
| 2026-04-26 17:39 | 55.04227 | 8.61585 | 30119 ft | 410 kts | 323° |
| 2026-04-26 17:39 | 55.06596 | 8.58810 | 30627 ft | 409 kts | 323° |
| 2026-04-26 17:39 | 55.08957 | 8.56065 | 31097 ft | 407 kts | 324° |
| 2026-04-26 17:40 | 55.11311 | 8.53323 | 31554 ft | 406 kts | 323° |
| 2026-04-26 17:40 | 55.12101 | 8.52398 | 31705 ft | 405 kts | 323° |
| 2026-04-26 17:40 | 55.15976 | 8.47837 | 32426 ft | 403 kts | 323° |
| 2026-04-26 17:40 | 55.18300 | 8.45100 | 32828 ft | 402 kts | 323° |
| 2026-04-26 17:41 | 55.20618 | 8.42365 | 33231 ft | 401 kts | 323° |
| 2026-04-26 17:41 | 55.22926 | 8.39627 | 33613 ft | 400 kts | 323° |
| 2026-04-26 17:41 | 55.25197 | 8.36930 | 34021 ft | 399 kts | 323° |
| 2026-04-26 17:41 | 55.27496 | 8.34197 | 34311 ft | 400 kts | 323° |
| 2026-04-26 17:42 | 55.32093 | 8.28716 | 34345 ft | 399 kts | 323° |
| 2026-04-26 17:42 | 55.36693 | 8.23225 | 34337 ft | 400 kts | 323° |
| 2026-04-26 17:43 | 55.41293 | 8.17722 | 34336 ft | 400 kts | 323° |
| 2026-04-26 17:43 | 55.45894 | 8.12223 | 34336 ft | 400 kts | 323° |
| 2026-04-26 17:44 | 55.50457 | 8.06736 | 34337 ft | 400 kts | 323° |
| 2026-04-26 17:44 | 55.55049 | 8.01205 | 34355 ft | 399 kts | 323° |
| 2026-04-26 17:45 | 55.59638 | 7.95657 | 34345 ft | 399 kts | 323° |
| 2026-04-26 17:45 | 55.64215 | 7.90094 | 34340 ft | 399 kts | 323° |
| 2026-04-26 17:46 | 55.68786 | 7.84499 | 34327 ft | 400 kts | 322° |
| 2026-04-26 17:46 | 55.73367 | 7.78891 | 34343 ft | 400 kts | 323° |
| 2026-04-26 17:47 | 55.76400 | 7.75186 | 34342 ft | 400 kts | 323° |
| 2026-04-26 17:47 | 55.82503 | 7.67723 | 34342 ft | 400 kts | 323° |
| 2026-04-26 17:48 | 55.87081 | 7.62087 | 34343 ft | 400 kts | 322° |
| 2026-04-26 17:48 | 55.91658 | 7.56443 | 34342 ft | 400 kts | 322° |
| 2026-04-26 17:49 | 55.96226 | 7.50776 | 34345 ft | 400 kts | 322° |
| 2026-04-26 17:49 | 56.00793 | 7.45090 | 34348 ft | 400 kts | 322° |
| 2026-04-26 17:50 | 56.05330 | 7.39435 | 34335 ft | 400 kts | 322° |
| 2026-04-26 17:50 | 56.09898 | 7.33722 | 34359 ft | 401 kts | 322° |
| 2026-04-26 17:51 | 56.14474 | 7.27985 | 34349 ft | 401 kts | 322° |
| 2026-04-26 17:51 | 56.19045 | 7.22236 | 34349 ft | 401 kts | 322° |
| 2026-04-26 17:52 | 56.23618 | 7.16474 | 34345 ft | 401 kts | 322° |
| 2026-04-26 17:52 | 56.28153 | 7.10734 | 34348 ft | 401 kts | 322° |
| 2026-04-26 17:53 | 56.32724 | 7.04954 | 34346 ft | 401 kts | 322° |
| 2026-04-26 17:54 | 56.39564 | 6.96250 | 34358 ft | 401 kts | 322° |
| 2026-04-26 17:54 | 56.44124 | 6.90431 | 34345 ft | 402 kts | 321° |
| 2026-04-26 17:55 | 56.48666 | 6.84618 | 34346 ft | 403 kts | 321° |
| 2026-04-26 17:55 | 56.53236 | 6.78759 | 34345 ft | 403 kts | 321° |
| 2026-04-26 17:56 | 56.57805 | 6.72881 | 34343 ft | 402 kts | 321° |
| 2026-04-26 17:57 | 56.66910 | 6.61084 | 34365 ft | 402 kts | 321° |
| 2026-04-26 17:57 | 56.71459 | 6.55160 | 34346 ft | 402 kts | 321° |
| 2026-04-26 17:58 | 56.80524 | 6.43327 | 34329 ft | 402 kts | 321° |
| 2026-04-26 17:59 | 56.87349 | 6.34361 | 34341 ft | 403 kts | 321° |
| 2026-04-26 17:59 | 56.91138 | 6.29385 | 34343 ft | 403 kts | 321° |
| 2026-04-26 18:00 | 56.95684 | 6.23374 | 34370 ft | 403 kts | 321° |
| 2026-04-26 18:00 | 57.00961 | 6.16364 | 34350 ft | 403 kts | 321° |
| 2026-04-26 18:01 | 57.04760 | 6.11286 | 34348 ft | 403 kts | 320° |
| 2026-04-26 18:01 | 57.09263 | 6.05255 | 34344 ft | 403 kts | 320° |
| 2026-04-26 18:02 | 57.13062 | 6.00164 | 34341 ft | 403 kts | 320° |
| 2026-04-26 18:02 | 57.18336 | 5.93081 | 34346 ft | 403 kts | 320° |
| 2026-04-26 18:03 | 57.22876 | 5.86970 | 34345 ft | 405 kts | 320° |
| 2026-04-26 18:03 | 57.27424 | 5.80841 | 34348 ft | 405 kts | 320° |
| 2026-04-26 18:04 | 57.31939 | 5.74736 | 34339 ft | 405 kts | 320° |
| 2026-04-26 18:05 | 57.38747 | 5.65469 | 34341 ft | 405 kts | 320° |
| 2026-04-26 18:05 | 57.43278 | 5.59275 | 34338 ft | 405 kts | 320° |
| 2026-04-26 18:06 | 57.47779 | 5.53110 | 34332 ft | 405 kts | 320° |
| 2026-04-26 18:06 | 57.52302 | 5.46875 | 34342 ft | 405 kts | 320° |
| 2026-04-26 18:07 | 57.56826 | 5.40635 | 34344 ft | 405 kts | 320° |
| 2026-04-26 18:07 | 57.61350 | 5.34375 | 34337 ft | 405 kts | 320° |
| 2026-04-26 18:08 | 57.65839 | 5.28143 | 34340 ft | 405 kts | 320° |
| 2026-04-26 18:08 | 57.70347 | 5.21835 | 34342 ft | 405 kts | 320° |
| 2026-04-26 18:09 | 57.74859 | 5.15537 | 34343 ft | 405 kts | 320° |
| 2026-04-26 18:09 | 57.79376 | 5.09229 | 34345 ft | 405 kts | 320° |
| 2026-04-26 18:10 | 57.83884 | 5.02908 | 34361 ft | 404 kts | 320° |
| 2026-04-26 18:10 | 57.88353 | 4.96609 | 34350 ft | 404 kts | 320° |
| 2026-04-26 18:11 | 57.92843 | 4.90271 | 34346 ft | 404 kts | 320° |
| 2026-04-26 18:11 | 57.97337 | 4.83906 | 34345 ft | 405 kts | 319° |
| 2026-04-26 18:12 | 58.01838 | 4.77500 | 34347 ft | 406 kts | 319° |
| 2026-04-26 18:12 | 58.06301 | 4.71103 | 34345 ft | 405 kts | 319° |
| 2026-04-26 18:13 | 58.10793 | 4.64663 | 34350 ft | 405 kts | 319° |
| 2026-04-26 18:13 | 58.15289 | 4.58200 | 34357 ft | 406 kts | 319° |
| 2026-04-26 18:14 | 58.19779 | 4.51721 | 34354 ft | 406 kts | 319° |
| 2026-04-26 18:14 | 58.24239 | 4.45278 | 34351 ft | 406 kts | 319° |
| 2026-04-26 18:15 | 58.28721 | 4.38773 | 34351 ft | 406 kts | 319° |
| 2026-04-26 18:15 | 58.33200 | 4.32245 | 34349 ft | 406 kts | 319° |
| 2026-04-26 18:16 | 58.37686 | 4.25686 | 34352 ft | 407 kts | 319° |
| 2026-04-26 18:16 | 58.44415 | 4.15810 | 34357 ft | 408 kts | 319° |
| 2026-04-26 18:17 | 58.48879 | 4.09240 | 34356 ft | 408 kts | 319° |
| 2026-04-26 18:17 | 58.53370 | 4.02612 | 34357 ft | 408 kts | 319° |
| 2026-04-26 18:18 | 58.57854 | 3.95953 | 34360 ft | 408 kts | 319° |
| 2026-04-26 18:18 | 58.62333 | 3.89290 | 34364 ft | 407 kts | 319° |
| 2026-04-26 18:19 | 58.66775 | 3.82656 | 34351 ft | 408 kts | 319° |
| 2026-04-26 18:19 | 58.71246 | 3.75950 | 34351 ft | 408 kts | 318° |
| 2026-04-26 18:20 | 58.75716 | 3.69232 | 34354 ft | 408 kts | 318° |
| 2026-04-26 18:20 | 58.79437 | 3.63619 | 34360 ft | 408 kts | 318° |
| 2026-04-26 18:21 | 58.84623 | 3.55817 | 34353 ft | 408 kts | 318° |
| 2026-04-26 18:21 | 58.89091 | 3.49074 | 34356 ft | 407 kts | 318° |
| 2026-04-26 18:22 | 58.93546 | 3.42295 | 34363 ft | 407 kts | 318° |
| 2026-04-26 18:22 | 58.97990 | 3.35491 | 34353 ft | 407 kts | 318° |
| 2026-04-26 18:23 | 59.02444 | 3.28669 | 34364 ft | 408 kts | 318° |
| 2026-04-26 18:23 | 59.06863 | 3.21876 | 34359 ft | 408 kts | 318° |
| 2026-04-26 18:24 | 59.11309 | 3.15005 | 34352 ft | 408 kts | 318° |
| 2026-04-26 18:24 | 59.15751 | 3.08115 | 34365 ft | 408 kts | 318° |
| 2026-04-26 18:25 | 59.20187 | 3.01204 | 34352 ft | 408 kts | 317° |
| 2026-04-26 18:25 | 59.24598 | 2.94344 | 34363 ft | 408 kts | 317° |
| 2026-04-26 18:26 | 59.29033 | 2.87414 | 34371 ft | 408 kts | 318° |
| 2026-04-26 18:26 | 59.33457 | 2.80440 | 34361 ft | 409 kts | 317° |
| 2026-04-26 18:27 | 59.37861 | 2.73498 | 34358 ft | 409 kts | 317° |
| 2026-04-26 18:27 | 59.42282 | 2.66488 | 34358 ft | 409 kts | 317° |
| 2026-04-26 18:28 | 59.46711 | 2.59466 | 34357 ft | 409 kts | 317° |
| 2026-04-26 18:28 | 59.51136 | 2.52424 | 34359 ft | 410 kts | 317° |
| 2026-04-26 18:29 | 59.55564 | 2.45349 | 34357 ft | 410 kts | 317° |
| 2026-04-26 18:29 | 59.59954 | 2.38293 | 34364 ft | 410 kts | 317° |
| 2026-04-26 18:30 | 59.64377 | 2.31174 | 34355 ft | 410 kts | 317° |
| 2026-04-26 18:30 | 59.68794 | 2.24036 | 34355 ft | 410 kts | 317° |
| 2026-04-26 18:31 | 59.73212 | 2.16875 | 34352 ft | 410 kts | 317° |
| 2026-04-26 18:31 | 59.77587 | 2.09727 | 34349 ft | 410 kts | 317° |
| 2026-04-26 18:32 | 59.81988 | 2.02519 | 34349 ft | 410 kts | 317° |
| 2026-04-26 18:32 | 59.86388 | 1.95299 | 34349 ft | 411 kts | 317° |
| 2026-04-26 18:33 | 59.90812 | 1.88041 | 34356 ft | 413 kts | 317° |
| 2026-04-26 18:33 | 59.95196 | 1.80774 | 34351 ft | 413 kts | 317° |
| 2026-04-26 18:34 | 59.99636 | 1.73494 | 34347 ft | 413 kts | 317° |
| 2026-04-26 18:34 | 60.04066 | 1.66178 | 34343 ft | 413 kts | 317° |
| 2026-04-26 18:35 | 60.08474 | 1.58826 | 34344 ft | 413 kts | 317° |
| 2026-04-26 18:35 | 60.12868 | 1.51419 | 34345 ft | 413 kts | 317° |
| 2026-04-26 18:36 | 60.17242 | 1.44077 | 34351 ft | 413 kts | 317° |
| 2026-04-26 18:36 | 60.21660 | 1.36639 | 34345 ft | 415 kts | 317° |
| 2026-04-26 18:37 | 60.26077 | 1.29152 | 34338 ft | 416 kts | 316° |
| 2026-04-26 18:37 | 60.30501 | 1.21649 | 34337 ft | 416 kts | 317° |
| 2026-04-26 18:38 | 60.34917 | 1.14116 | 34336 ft | 416 kts | 316° |
| 2026-04-26 18:38 | 60.39305 | 1.06615 | 34334 ft | 416 kts | 316° |
| 2026-04-26 18:39 | 60.43710 | 0.99049 | 34330 ft | 415 kts | 316° |
| 2026-04-26 18:39 | 60.48112 | 0.91455 | 34337 ft | 417 kts | 317° |
| 2026-04-26 18:40 | 60.52531 | 0.83827 | 34332 ft | 417 kts | 316° |
| 2026-04-26 18:40 | 60.56909 | 0.76216 | 34331 ft | 417 kts | 317° |
| 2026-04-26 18:41 | 60.61320 | 0.68545 | 34329 ft | 417 kts | 316° |
| 2026-04-26 18:41 | 60.65739 | 0.60818 | 34329 ft | 420 kts | 316° |
| 2026-04-26 18:42 | 60.70162 | 0.53034 | 34326 ft | 420 kts | 316° |
| 2026-04-26 18:42 | 60.74578 | 0.45224 | 34322 ft | 420 kts | 316° |
| 2026-04-26 18:43 | 60.78969 | 0.37435 | 34326 ft | 421 kts | 316° |
| 2026-04-26 18:43 | 60.83393 | 0.29568 | 34317 ft | 421 kts | 316° |
| 2026-04-26 18:44 | 60.87824 | 0.21688 | 34315 ft | 421 kts | 316° |
| 2026-04-26 18:44 | 60.92244 | 0.13770 | 34314 ft | 421 kts | 316° |
| 2026-04-26 18:45 | 60.96629 | 0.05891 | 34312 ft | 421 kts | 316° |
| 2026-04-26 18:45 | 61.00551 | -0.02926 | 34313 ft | 417 kts | 299° |
| 2026-04-26 18:46 | 61.03139 | -0.13633 | 34315 ft | 418 kts | 292° |
| 2026-04-26 18:46 | 61.05607 | -0.24506 | 34316 ft | 420 kts | 293° |